createdAt,value
2022-10-13T00:01:08.416Z,8.89
2022-10-13T00:03:42.008Z,8.88
2022-10-13T00:06:15.664Z,8.87
2022-10-13T00:08:48.771Z,8.86
2022-10-13T00:11:23.037Z,8.86
2022-10-13T00:13:56.351Z,8.85
2022-10-13T00:16:29.491Z,8.84
2022-10-13T00:19:02.340Z,8.82
2022-10-13T00:21:34.527Z,8.77
2022-10-13T00:24:06.959Z,8.76
2022-10-13T00:26:39.197Z,8.76
2022-10-13T00:29:12.614Z,8.76
2022-10-13T00:31:44.833Z,8.75
2022-10-13T00:34:17.119Z,8.74
2022-10-13T00:36:49.180Z,8.73
2022-10-13T00:39:21.385Z,8.73
2022-10-13T00:41:54.574Z,8.72
2022-10-13T00:45:07.128Z,8.71
2022-10-13T00:47:43.258Z,8.69
2022-10-13T00:50:17.380Z,8.68
2022-10-13T00:52:52.282Z,8.67
2022-10-13T00:55:31.959Z,8.65
2022-10-13T00:58:07.504Z,8.64
2022-10-13T01:00:39.791Z,8.64
2022-10-13T01:03:12.563Z,8.63
2022-10-13T01:05:45.755Z,8.62
2022-10-13T01:08:19.280Z,8.61
2022-10-13T01:11:04.650Z,8.62
2022-10-13T01:13:45.546Z,8.62
2022-10-13T01:16:26.162Z,8.61
2022-10-13T01:19:11.558Z,8.60
2022-10-13T01:21:48.484Z,8.59
2022-10-13T01:24:47.843Z,8.57
2022-10-13T01:27:47.587Z,8.58
2022-10-13T01:30:21.479Z,8.55
2022-10-13T01:33:13.315Z,8.54
2022-10-13T01:35:55.507Z,8.53
2022-10-13T01:38:36.608Z,8.52
2022-10-13T01:41:14.699Z,8.51
2022-10-13T01:43:52.821Z,8.51
2022-10-13T01:46:28.993Z,8.50
2022-10-13T01:49:04.491Z,8.50
2022-10-13T01:51:37.773Z,8.49
2022-10-13T01:54:10.295Z,8.48
2022-10-13T01:56:42.462Z,8.48
2022-10-13T01:59:16.586Z,8.48
2022-10-13T02:02:01.292Z,8.47
2022-10-13T02:04:44.556Z,8.48
2022-10-13T02:07:24.923Z,8.47
2022-10-13T02:10:06.548Z,8.46
2022-10-13T02:12:45.565Z,8.47
2022-10-13T02:15:23.173Z,8.49
2022-10-13T02:17:56.528Z,8.51
2022-10-13T02:20:29.132Z,8.53
2022-10-13T02:23:06.224Z,8.53
2022-10-13T02:25:39.892Z,8.52
2022-10-13T02:28:14.318Z,8.52
2022-10-13T02:30:49.958Z,8.55
2022-10-13T02:33:22.177Z,8.58
2022-10-13T02:35:54.399Z,8.60
2022-10-13T02:38:27.127Z,8.64
2022-10-13T02:40:59.327Z,8.68
2022-10-13T02:43:33.896Z,8.72
2022-10-13T02:46:07.161Z,8.76
2022-10-13T02:48:39.309Z,8.79
2022-10-13T02:51:11.636Z,8.81
2022-10-13T02:53:43.769Z,8.84
2022-10-13T02:56:16.573Z,8.86
2022-10-13T02:58:48.730Z,8.89
2022-10-13T03:01:20.924Z,8.92
2022-10-13T03:03:53.164Z,8.95
2022-10-13T03:06:25.379Z,8.96
2022-10-13T03:08:57.691Z,8.99
2022-10-13T03:11:30.617Z,9.01
2022-10-13T03:14:03.064Z,9.02
2022-10-13T03:16:35.519Z,9.02
2022-10-13T03:19:07.714Z,9.00
2022-10-13T03:21:40.267Z,9.04
2022-10-13T03:24:12.595Z,9.09
2022-10-13T03:26:45.058Z,9.13
2022-10-13T03:29:18.648Z,9.16
2022-10-13T03:31:51.115Z,9.21
2022-10-13T03:34:23.367Z,9.23
2022-10-13T03:36:55.714Z,9.26
2022-10-13T03:39:28.260Z,9.19
2022-10-13T03:42:00.609Z,9.21
2022-10-13T03:44:33.071Z,9.22
2022-10-13T03:47:05.340Z,9.22
2022-10-13T03:49:38.439Z,9.26
2022-10-13T03:52:10.657Z,9.30
2022-10-13T03:54:42.932Z,9.36
2022-10-13T03:57:15.252Z,9.39
2022-10-13T03:59:47.508Z,9.41
2022-10-13T04:02:19.931Z,9.39
2022-10-13T04:04:54.390Z,9.41
2022-10-13T04:07:26.599Z,9.45
2022-10-13T04:09:58.822Z,9.47
2022-10-13T04:12:31.460Z,9.52
2022-10-13T04:15:04.721Z,9.57
2022-10-13T04:17:37.004Z,9.62
2022-10-13T04:20:12.136Z,9.66
2022-10-13T04:22:42.665Z,9.67
2022-10-13T04:25:14.793Z,9.67
2022-10-13T04:27:48.370Z,9.69
2022-10-13T04:30:20.578Z,9.70
2022-10-13T04:32:52.689Z,9.73
2022-10-13T04:35:24.876Z,9.69
2022-10-13T04:37:58.163Z,9.60
2022-10-13T04:40:30.372Z,9.56
2022-10-13T04:43:02.701Z,9.58
2022-10-13T04:45:34.904Z,9.61
2022-10-13T04:48:07.532Z,9.65
2022-10-13T04:50:39.639Z,9.66
2022-10-13T04:53:15.435Z,9.65
2022-10-13T04:55:51.162Z,9.62
2022-10-13T04:58:23.451Z,9.58
2022-10-13T05:00:57.744Z,9.60
2022-10-13T05:03:30.903Z,9.62
2022-10-13T05:06:03.241Z,9.65
2022-10-13T05:08:37.520Z,9.64
2022-10-13T05:11:10.021Z,9.66
2022-10-13T05:13:42.239Z,9.66
2022-10-13T05:16:16.745Z,9.66
2022-10-13T05:18:49.281Z,9.71
2022-10-13T05:21:24.090Z,9.74
2022-10-13T05:23:58.099Z,9.77
2022-10-13T05:26:33.694Z,9.74
2022-10-13T05:29:06.318Z,9.74
2022-10-13T05:31:38.849Z,9.67
2022-10-13T05:34:11.464Z,9.62
2022-10-13T05:36:43.572Z,9.66
2022-10-13T05:39:15.880Z,9.65
2022-10-13T05:41:48.157Z,9.66
2022-10-13T05:44:25.648Z,9.69
2022-10-13T05:47:06.497Z,9.72
2022-10-13T05:49:41.192Z,9.79
2022-10-13T05:52:15.041Z,9.80
2022-10-13T05:54:51.017Z,9.82
2022-10-13T05:57:27.437Z,9.80
2022-10-13T06:00:03.099Z,9.81
2022-10-13T06:02:50.400Z,9.84
2022-10-13T06:05:25.525Z,9.82
2022-10-13T06:07:58.310Z,9.83
2022-10-13T06:10:30.567Z,9.84
2022-10-13T06:13:02.796Z,9.83
2022-10-13T06:15:34.970Z,9.89
2022-10-13T06:18:11.719Z,9.97
2022-10-13T06:20:44.266Z,9.98
2022-10-13T06:23:19.368Z,10.03
2022-10-13T06:25:52.271Z,10.09
2022-10-13T06:28:24.445Z,10.16
2022-10-13T06:30:57.283Z,10.23
2022-10-13T06:33:29.385Z,10.28
2022-10-13T06:36:06.179Z,10.32
2022-10-13T06:38:38.332Z,10.35
2022-10-13T06:41:11.259Z,10.34
2022-10-13T06:43:43.778Z,10.31
2022-10-13T06:46:16.257Z,10.29
2022-10-13T06:48:49.900Z,10.30
2022-10-13T06:51:22.595Z,10.34
2022-10-13T06:53:56.446Z,10.42
2022-10-13T06:56:31.786Z,10.55
2022-10-13T06:59:04.302Z,10.68
2022-10-13T07:01:41.358Z,10.84
2022-10-13T07:04:18.172Z,11.01
2022-10-13T07:06:51.032Z,11.13
2022-10-13T07:09:23.155Z,11.26
2022-10-13T07:11:55.352Z,11.40
2022-10-13T07:14:27.875Z,11.55
2022-10-13T07:17:00.483Z,11.69
2022-10-13T07:19:32.729Z,11.81
2022-10-13T07:22:05.052Z,11.99
2022-10-13T07:24:37.149Z,12.13
2022-10-13T07:27:09.239Z,12.23
2022-10-13T07:29:41.399Z,12.37
2022-10-13T07:32:13.580Z,12.53
2022-10-13T07:34:45.700Z,12.67
2022-10-13T07:37:18.108Z,12.78
2022-10-13T07:39:51.696Z,12.91
2022-10-13T07:42:23.954Z,13.01
2022-10-13T07:44:56.071Z,13.13
2022-10-13T07:47:29.434Z,13.29
2022-10-13T07:50:01.734Z,13.41
2022-10-13T07:52:35.973Z,13.56
2022-10-13T07:55:11.201Z,13.66
2022-10-13T07:57:41.765Z,13.73
2022-10-13T08:00:15.537Z,13.80
2022-10-13T08:02:50.335Z,13.94
2022-10-13T08:05:22.428Z,14.02
2022-10-13T08:07:57.585Z,14.03
2022-10-13T08:10:30.790Z,14.11
2022-10-13T08:13:03.013Z,14.13
2022-10-13T08:15:35.197Z,14.15
2022-10-13T08:18:07.400Z,14.25
2022-10-13T08:20:43.866Z,14.32
2022-10-13T08:23:16.365Z,14.39
2022-10-13T08:25:55.444Z,14.44
2022-10-13T08:28:29.658Z,14.55
2022-10-13T08:31:01.975Z,14.66
2022-10-13T08:33:34.159Z,14.77
2022-10-13T08:36:07.296Z,14.86
2022-10-13T08:38:39.485Z,14.92
2022-10-13T08:41:18.797Z,15.02
2022-10-13T08:44:39.593Z,15.08
2022-10-13T08:46:50.605Z,15.17
2022-10-13T08:49:22.851Z,15.18
2022-10-13T08:51:56.901Z,15.20
2022-10-13T08:54:29.309Z,15.20
2022-10-13T08:59:38.852Z,15.32
2022-10-13T09:02:16.295Z,15.42
2022-10-13T09:04:50.966Z,15.52
2022-10-13T09:07:26.073Z,15.61
2022-10-13T09:09:58.574Z,15.67
2022-10-13T09:12:33.997Z,15.65
2022-10-13T09:15:09.990Z,15.58
2022-10-13T09:17:43.212Z,15.52
2022-10-13T09:20:23.944Z,15.57
2022-10-13T09:23:06.555Z,15.65
2022-10-13T09:25:44.031Z,15.75
2022-10-13T09:28:21.929Z,15.92
2022-10-13T09:31:04.244Z,16.07
2022-10-13T09:33:39.220Z,16.24
2022-10-13T09:36:14.453Z,16.34
2022-10-13T09:39:08.174Z,16.39
2022-10-13T09:41:43.179Z,16.45
2022-10-13T09:44:18.281Z,16.44
2022-10-13T09:46:54.765Z,16.39
2022-10-13T09:49:39.428Z,16.44
2022-10-13T09:52:20.422Z,16.53
2022-10-13T09:54:54.673Z,16.54
2022-10-13T09:57:34.439Z,16.51
2022-10-13T10:00:15.322Z,16.54
2022-10-13T10:02:55.104Z,16.61
2022-10-13T10:05:30.635Z,16.65
2022-10-13T10:08:13.636Z,16.64
2022-10-13T10:10:47.332Z,16.67
2022-10-13T10:13:19.424Z,16.68
2022-10-13T10:15:57.820Z,16.68
2022-10-13T10:18:36.859Z,16.66
2022-10-13T10:21:14.774Z,16.71
2022-10-13T10:23:52.569Z,16.77
2022-10-13T10:26:32.802Z,16.79
2022-10-13T10:29:18.154Z,16.77
2022-10-13T10:32:13.060Z,16.76
2022-10-13T10:34:52.317Z,16.82
2022-10-13T10:37:38.799Z,16.81
2022-10-13T10:40:23.414Z,16.78
2022-10-13T10:43:05.500Z,16.78
2022-10-13T10:45:40.801Z,16.77
2022-10-13T10:48:22.276Z,16.81
2022-10-13T10:50:55.353Z,16.87
2022-10-13T10:53:38.172Z,16.93
2022-10-13T10:56:19.297Z,17.07
2022-10-13T10:58:59.696Z,17.24
2022-10-13T11:01:39.677Z,17.43
2022-10-13T11:04:36.455Z,17.49
2022-10-13T11:07:13.561Z,17.47
2022-10-13T11:10:05.178Z,17.49
2022-10-13T11:13:06.845Z,17.52
2022-10-13T11:15:47.140Z,17.56
2022-10-13T11:18:59.410Z,17.61
2022-10-13T11:22:25.433Z,17.72
2022-10-13T11:25:25.210Z,17.76
2022-10-13T11:27:57.437Z,17.71
2022-10-13T11:30:50.428Z,17.65
2022-10-13T11:34:02.956Z,17.63
2022-10-13T11:36:56.831Z,17.76
2022-10-13T11:40:01.949Z,17.79
2022-10-13T11:43:08.435Z,17.79
2022-10-13T11:46:10.899Z,17.82
2022-10-13T11:48:59.178Z,17.82
2022-10-13T11:51:43.816Z,17.72
2022-10-13T11:54:25.064Z,17.64
2022-10-13T11:56:58.811Z,17.63
2022-10-13T11:59:33.172Z,17.72
2022-10-13T12:02:18.925Z,17.83
2022-10-13T12:05:08.931Z,17.84
2022-10-13T12:07:44.051Z,17.80
2022-10-13T12:10:24.605Z,17.74
2022-10-13T12:12:56.888Z,17.64
2022-10-13T12:15:35.591Z,17.55
2022-10-13T12:18:23.680Z,17.50
2022-10-13T12:20:57.776Z,17.47
2022-10-13T12:23:30.884Z,17.41
2022-10-13T12:26:03.585Z,17.36
2022-10-13T12:28:54.253Z,17.38
2022-10-13T12:31:29.113Z,17.53
2022-10-13T12:34:00.525Z,17.63
2022-10-13T12:36:35.303Z,17.66
2022-10-13T12:39:13.297Z,17.63
2022-10-13T12:41:47.388Z,17.58
2022-10-13T12:44:22.599Z,17.56
2022-10-13T12:46:56.353Z,17.51
2022-10-13T12:49:30.289Z,17.42
2022-10-13T12:52:08.165Z,17.32
2022-10-13T12:54:47.572Z,17.28
2022-10-13T12:57:23.049Z,17.25
2022-10-13T12:59:55.284Z,17.19
2022-10-13T13:02:30.435Z,17.10
2022-10-13T13:05:02.692Z,17.08
2022-10-13T13:07:38.072Z,17.09
2022-10-13T13:10:20.666Z,17.13
2022-10-13T13:12:54.832Z,17.12
2022-10-13T13:15:39.257Z,17.11
2022-10-13T13:18:36.380Z,17.10
2022-10-13T13:21:10.090Z,17.12
2022-10-13T13:23:51.055Z,17.09
2022-10-13T13:26:26.328Z,16.98
2022-10-13T13:28:58.960Z,16.89
2022-10-13T13:31:31.013Z,16.73
2022-10-13T13:34:03.138Z,16.67
2022-10-13T13:36:35.488Z,16.63
2022-10-13T13:39:12.456Z,16.60
2022-10-13T13:41:45.903Z,16.58
2022-10-13T13:44:18.074Z,16.54
2022-10-13T13:46:51.002Z,16.49
2022-10-13T13:49:23.080Z,16.41
2022-10-13T13:51:55.195Z,16.33
2022-10-13T13:54:27.380Z,16.24
2022-10-13T13:56:59.552Z,16.13
2022-10-13T13:59:31.795Z,16.08
2022-10-13T14:02:03.968Z,16.01
2022-10-13T14:04:38.597Z,15.96
2022-10-13T14:07:10.789Z,15.90
2022-10-13T14:09:43.015Z,15.86
2022-10-13T14:12:15.395Z,15.81
2022-10-13T14:14:47.647Z,15.75
2022-10-13T14:17:21.021Z,15.71
2022-10-13T14:19:53.348Z,15.67
2022-10-13T14:22:26.234Z,15.64
2022-10-13T14:24:58.632Z,15.58
2022-10-13T14:27:31.288Z,15.53
2022-10-13T14:30:05.749Z,15.46
2022-10-13T14:32:39.554Z,15.42
2022-10-13T14:35:13.516Z,15.39
2022-10-13T14:37:46.059Z,15.34
2022-10-13T14:40:18.543Z,15.30
2022-10-13T14:42:50.668Z,15.25
2022-10-13T14:45:22.824Z,15.22
2022-10-13T14:47:56.064Z,15.18
2022-10-13T14:50:29.825Z,15.15
2022-10-13T14:53:02.003Z,15.13
2022-10-13T14:55:35.424Z,15.11
2022-10-13T14:58:07.659Z,15.06
2022-10-13T15:00:40.239Z,15.04
2022-10-13T15:03:15.251Z,15.01
2022-10-13T15:05:47.431Z,15.00
2022-10-13T15:08:23.064Z,14.96
2022-10-13T15:11:03.202Z,14.92
2022-10-13T15:13:35.425Z,14.84
2022-10-13T15:16:09.349Z,14.77
2022-10-13T15:18:41.975Z,14.71
2022-10-13T15:21:14.601Z,14.68
2022-10-13T15:23:47.392Z,14.65
2022-10-13T15:26:21.070Z,14.63
2022-10-13T15:28:54.813Z,14.61
2022-10-13T15:31:27.360Z,14.60
2022-10-13T15:33:59.681Z,14.60
2022-10-13T15:36:31.828Z,14.56
2022-10-13T15:39:04.125Z,14.53
2022-10-13T15:41:36.295Z,14.46
2022-10-13T15:44:08.507Z,14.44
2022-10-13T15:46:53.899Z,14.40
2022-10-13T15:49:37.496Z,14.34
2022-10-13T15:52:10.210Z,14.29
2022-10-13T15:54:42.357Z,14.22
2022-10-13T15:57:14.653Z,14.15
2022-10-13T15:59:46.788Z,14.09
2022-10-13T16:02:19.617Z,14.03
2022-10-13T16:04:51.950Z,13.98
2022-10-13T16:07:24.056Z,13.91
2022-10-13T16:09:56.210Z,13.77
2022-10-13T16:12:28.568Z,13.60
2022-10-13T16:15:00.949Z,13.47
2022-10-13T16:17:33.072Z,13.40
2022-10-13T16:20:06.098Z,13.38
2022-10-13T16:22:38.312Z,13.37
2022-10-13T16:25:12.288Z,13.35
2022-10-13T16:27:44.835Z,13.31
2022-10-13T16:30:17.589Z,13.28
2022-10-13T16:32:49.649Z,13.24
2022-10-13T16:35:21.939Z,13.20
2022-10-13T16:37:54.060Z,13.17
2022-10-13T16:40:26.240Z,13.14
2022-10-13T16:42:58.425Z,13.09
2022-10-13T16:45:47.992Z,13.07
2022-10-13T16:48:22.579Z,13.04
2022-10-13T16:50:54.756Z,12.99
2022-10-13T16:53:27.344Z,12.97
2022-10-13T16:55:59.528Z,12.96
2022-10-13T16:58:31.902Z,12.88
2022-10-13T17:01:09.560Z,12.78
2022-10-13T17:03:40.806Z,12.74
2022-10-13T17:06:14.742Z,12.72
2022-10-13T17:08:47.540Z,12.68
2022-10-13T17:11:22.337Z,12.66
2022-10-13T17:13:54.949Z,12.66
2022-10-13T17:16:27.649Z,12.62
2022-10-13T17:18:59.914Z,12.56
2022-10-13T17:21:44.308Z,12.44
2022-10-13T17:24:17.407Z,12.36
2022-10-13T17:26:51.735Z,12.27
2022-10-13T17:29:23.836Z,12.20
2022-10-13T17:31:57.168Z,12.18
2022-10-13T17:34:29.763Z,12.17
2022-10-13T17:37:04.781Z,12.09
2022-10-13T17:39:36.980Z,12.06
2022-10-13T17:42:09.431Z,12.03
2022-10-13T17:44:42.759Z,12.04
2022-10-13T17:47:16.693Z,12.06
2022-10-13T17:49:48.818Z,12.04
2022-10-13T17:52:23.581Z,12.00
2022-10-13T17:54:55.955Z,12.00
2022-10-13T17:57:30.653Z,12.03
2022-10-13T18:00:10.843Z,12.05
2022-10-13T18:02:47.776Z,12.06
2022-10-13T18:05:20.720Z,12.06
2022-10-13T18:07:57.577Z,12.05
2022-10-13T18:10:40.827Z,11.99
2022-10-13T18:13:21.861Z,11.97
2022-10-13T18:15:54.045Z,11.93
2022-10-13T18:18:26.241Z,11.92
2022-10-13T18:20:58.377Z,11.92
2022-10-13T18:23:33.171Z,11.94
2022-10-13T18:26:07.264Z,11.93
2022-10-13T18:28:41.216Z,11.93
2022-10-13T18:31:16.240Z,11.95
2022-10-13T18:33:47.780Z,11.93
2022-10-13T18:36:23.576Z,11.82
2022-10-13T18:38:57.853Z,11.75
2022-10-13T18:41:30.147Z,11.67
2022-10-13T18:44:03.639Z,11.61
2022-10-13T18:46:37.625Z,11.61
2022-10-13T18:49:13.817Z,11.58
2022-10-13T18:51:48.060Z,11.51
2022-10-13T18:54:20.341Z,11.47
2022-10-13T18:56:52.717Z,11.45
2022-10-13T18:59:25.073Z,11.45
2022-10-13T19:01:57.188Z,11.44
2022-10-13T19:04:30.345Z,11.43
2022-10-13T19:07:02.673Z,11.43
2022-10-13T19:09:34.877Z,11.44
2022-10-13T19:12:07.560Z,11.44
2022-10-13T19:14:39.744Z,11.45
2022-10-13T19:17:11.815Z,11.46
2022-10-13T19:19:43.998Z,11.44
2022-10-13T19:22:16.160Z,11.45
2022-10-13T19:24:48.429Z,11.39
2022-10-13T19:27:21.303Z,11.31
2022-10-13T19:29:55.553Z,11.24
2022-10-13T19:32:27.781Z,11.24
2022-10-13T19:34:59.956Z,11.26
2022-10-13T19:37:32.328Z,11.29
2022-10-13T19:40:04.852Z,11.32
2022-10-13T19:42:38.516Z,11.31
2022-10-13T19:45:14.574Z,11.32
2022-10-13T19:47:46.777Z,11.34
2022-10-13T19:50:19.848Z,11.36
2022-10-13T19:52:52.090Z,11.38
2022-10-13T19:55:24.246Z,11.40
2022-10-13T19:57:57.230Z,11.38
2022-10-13T20:00:29.560Z,11.37
2022-10-13T20:03:02.797Z,11.35
2022-10-13T20:05:35.248Z,11.37
2022-10-13T20:08:08.904Z,11.37
2022-10-13T20:10:43.081Z,11.35
2022-10-13T20:13:15.200Z,11.34
2022-10-13T20:15:47.544Z,11.36
2022-10-13T20:18:19.839Z,11.38
2022-10-13T20:20:52.005Z,11.37
2022-10-13T20:23:24.268Z,11.36
2022-10-13T20:25:56.519Z,11.35
2022-10-13T20:28:33.754Z,11.33
2022-10-13T20:31:06.810Z,11.33
2022-10-13T20:33:39.648Z,11.31
2022-10-13T20:36:16.437Z,11.30
2022-10-13T20:38:50.326Z,11.25
2022-10-13T20:41:25.743Z,11.21
2022-10-13T20:44:00.288Z,11.16
2022-10-13T20:46:33.437Z,11.15
2022-10-13T20:49:10.961Z,11.16
2022-10-13T20:51:44.932Z,11.17
2022-10-13T20:54:17.908Z,11.18
2022-10-13T20:56:50.591Z,11.20
2022-10-13T20:59:22.788Z,11.23
2022-10-13T21:01:55.052Z,11.23
2022-10-13T21:04:27.276Z,11.22
2022-10-13T21:06:59.675Z,11.21
2022-10-13T21:09:31.852Z,11.19
2022-10-13T21:12:04.035Z,11.17
2022-10-13T21:14:36.256Z,11.18
2022-10-13T21:17:08.585Z,11.19
2022-10-13T21:19:41.329Z,11.19
2022-10-13T21:22:13.799Z,11.22
2022-10-13T21:24:46.885Z,11.25
2022-10-13T21:27:19.724Z,11.23
2022-10-13T21:29:52.120Z,11.19
2022-10-13T21:32:24.532Z,11.16
2022-10-13T21:34:56.785Z,11.16
2022-10-13T21:37:29.036Z,11.15
2022-10-13T21:40:01.286Z,11.17
2022-10-13T21:42:34.608Z,11.11
2022-10-13T21:45:10.528Z,11.10
2022-10-13T21:47:42.760Z,11.12
2022-10-13T21:50:14.964Z,11.10
2022-10-13T21:52:50.262Z,11.04
2022-10-13T21:55:22.423Z,11.01
2022-10-13T21:57:58.087Z,10.96
2022-10-13T22:00:34.741Z,10.90
2022-10-13T22:03:07.020Z,10.91
2022-10-13T22:05:39.291Z,10.90
2022-10-13T22:08:11.468Z,10.88
2022-10-13T22:10:43.532Z,10.85
2022-10-13T22:13:15.836Z,10.80
2022-10-13T22:15:47.988Z,10.79
2022-10-13T22:18:21.026Z,10.78
2022-10-13T22:20:53.163Z,10.78
2022-10-13T22:23:25.288Z,10.76
2022-10-13T22:25:57.576Z,10.71
2022-10-13T22:28:34.733Z,10.68
2022-10-13T22:31:10.379Z,10.64
2022-10-13T22:33:44.102Z,10.59
2022-10-13T22:36:18.599Z,10.56
2022-10-13T22:38:52.567Z,10.50
2022-10-13T22:41:25.404Z,10.46
2022-10-13T22:43:58.922Z,10.43
2022-10-13T22:46:33.339Z,10.39
2022-10-13T22:49:06.623Z,10.36
2022-10-13T22:51:39.347Z,10.33
2022-10-13T22:54:11.809Z,10.37
2022-10-13T22:56:44.042Z,10.36
2022-10-13T22:59:16.208Z,10.36
2022-10-13T23:01:48.332Z,10.35
2022-10-13T23:04:20.737Z,10.36
2022-10-13T23:06:52.926Z,10.39
2022-10-13T23:09:25.275Z,10.38
2022-10-13T23:11:59.799Z,10.38
2022-10-13T23:14:33.548Z,10.33
2022-10-13T23:17:06.221Z,10.32
2022-10-13T23:19:39.528Z,10.31
2022-10-13T23:22:12.108Z,10.30
2022-10-13T23:24:44.376Z,10.24
2022-10-13T23:27:16.632Z,10.21
2022-10-13T23:29:48.814Z,10.18
2022-10-13T23:32:22.036Z,10.14
2022-10-13T23:34:54.240Z,10.13
2022-10-13T23:37:27.381Z,10.15
2022-10-13T23:39:59.656Z,10.12
2022-10-13T23:42:32.797Z,10.11
2022-10-13T23:45:05.331Z,10.10
2022-10-13T23:47:37.464Z,10.09
2022-10-13T23:50:10.991Z,10.10
2022-10-13T23:52:43.289Z,10.10
2022-10-13T23:55:17.891Z,10.14
2022-10-13T23:57:50.125Z,10.17
